Metar Cercanos

 

LEPA - Palma De Mallorc, Spain
Distance from station: ONO 38km
Actualización: 21/02/2018 02:30
Muy nuboso
Muy nuboso
 Viento del ENE
Viento: ENE 13 km/h
Temperatura: 12°C
Rocío: 9°C
Humedad: 82%
Barómetro: 1009 hPa
Clouds: Muy nuboso
Visibility: 10 km
Cloud details: Few Clouds 610 m
Parcialmente nuboso 914 m
Muy nuboso 1219 m
2018/02/21 01:30 LEPA 210130Z 07007KT 040V100 9999 FEW020 SCT030 BKN040 12/09 Q1009 NOSIG
LEMH - Mahon/Menorca Is, Spain
Distance from station: ENE 105km
Actualización: 21/02/2018 02:30
Parcialmente nuboso
Parcialmente nuboso
 Viento del NNE
Viento: NNE 35 km/h
Temperatura: 10°C
Sensación frio: 6°C
Rocío: 5°C
Humedad: 71%
Barómetro: 1007 hPa
Clouds: Parcialmente nuboso
Visibility: 8 km
2018/02/21 01:30 LEMH 210130Z AUTO 03019KT 8000 NSC 10/05 Q1007
 
LEIB - Ibiza/Es Codola, Spain
Distance from station: OSO 165km
Actualización: 21/02/2018 00:00
NOT Current
Despejado
Despejado
 Viento del O
Viento: O 6 km/h
Temperatura: 12°C
Rocío: 6°C
Humedad: 67%
Barómetro: 1010 hPa
Resumen: Despejado
Visibility: greater than 10 km
2018/02/20 23:00 LEIB 202300Z 26003KT 210V330 CAVOK 12/06 Q1010 NOSIG
LEBL - Barcelona Airpor, Spain
Distance from station: NNO 225km
Actualización: 21/02/2018 02:30
Few Clouds
Few Clouds
 Viento del NNO
Viento: NNO 15 km/h
Temperatura: 9°C
Sensación frio: 7°C
Rocío: 7°C
Humedad: 87%
Barómetro: 1008 hPa
Clouds: Few Clouds
Visibility: 6 km
Cloud details: Few Clouds 610 m
2018/02/21 01:30 LEBL 210130Z 33008KT 6000 FEW020 09/07 Q1008 NOSIG
 
LEVC - Valencia (civ/Mi, Spain
Distance from station: NO 188km
Actualización: 21/02/2018 02:30
Despejado
Despejado
 Viento del O
Viento: O 9 km/h
Temperatura: 8°C
Sensación frio: 6°C
Rocío: 2°C
Humedad: 66%
Barómetro: 1010 hPa
Resumen: Despejado
Visibility: greater than 10 km
2018/02/21 01:30 LEVC 210130Z 27005KT CAVOK 08/02 Q1010 NOSIG
LEGE - Gerona/Costa Bra, Spain
Distance from station: N 276km
Actualización: 21/02/2018 02:30
Mist, Muy nuboso
Mist, Muy nuboso
 Viento del NE
Viento: NE 6 km/h
Temperatura: 7°C
Rocío: 7°C
Humedad: 100%
Barómetro: 1008 hPa
Resumen: Mist
Clouds: Muy nuboso
Visibility: 5 km
Cloud details: Muy nuboso 823 m
2018/02/21 01:30 LEGE 210130Z 05003KT 5000 BR BKN027 07/07 Q1008
 
LEAL - Alicante/El Alte, Spain
Distance from station: OSO 344km
Actualización: 21/02/2018 02:30
Despejado
Despejado
 Viento del ONO
Viento: ONO 13 km/h
Temperatura: 11°C
Rocío: 3°C
Humedad: 58%
Barómetro: 1009 hPa
Resumen: Despejado
Visibility: greater than 10 km
2018/02/21 01:30 LEAL 210130Z 30007KT CAVOK 11/03 Q1009 NOSIG
LEAM - Almeria Airport, Spain
Distance from station: SSO 56km
Actualización: 21/02/2018 02:30
Mist, Cubierto
Mist, Cubierto
 Viento del varies
Viento: varies 4 km/h
Temperatura: 12°C
Rocío: 11°C
Humedad: 94%
Barómetro: 1010 hPa
Resumen: Mist
Clouds: Cubierto
Visibility: 5 km
Cloud details: Cubierto 274 m
2018/02/21 01:30 LEAM 210130Z AUTO VRB02KT 4700 BR OVC009/// 12/11 Q1010
 
LEZG - Zaragoza (mil/Ci, Spain
Distance from station: NO 431km
Actualización: 21/02/2018 02:30
Muy nuboso
Muy nuboso
 Viento del ONO
Viento: ONO 35 km/h, Racha: 54 km/h
Temperatura: 9°C
Sensación frio: 5°C
Rocío: 4°C
Humedad: 71%
Barómetro: 1012 hPa
Clouds: Muy nuboso
Visibility: 10 km
Cloud details: Few Clouds 1219 m
Muy nuboso 1372 m
2018/02/21 01:30 LEZG 210130Z 29019G29KT 9999 FEW040 BKN045 09/04 Q1012
LEMD - Madrid/Barajas, Spain
Distance from station: ONO 234km
Actualización: 21/02/2018 02:30
Despejado
Despejado
 Viento del N
Viento: N 19 km/h, Racha: 37 km/h
Temperatura: 8°C
Sensación frio: 4°C
Rocío: -1°C
Humedad: 53%
Barómetro: 1014 hPa
Resumen: Despejado
Visibility: greater than 10 km
2018/02/21 01:30 LEMD 210130Z 35010G20KT 310V020 CAVOK 08/M01 Q1014 NOSIG
 
LEGR - Granada Airport, Spain
Distance from station: OSO 62km
Actualización: 21/02/2018 02:30
Despejado
Despejado
 Viento del varies
Viento: varies 2 km/h
Temperatura: 5°C
Rocío: 2°C
Humedad: 81%
Barómetro: 1012 hPa
Clouds: Despejado
Visibility: 10 km
2018/02/21 01:30 LEGR 210130Z AUTO VRB01KT 9999 NCD 05/02 Q1012
LEMG - Malaga (civ/Mil), Spain
Distance from station: OSO 227km
Actualización: 21/02/2018 02:30
Despejado
Despejado
 Viento del O
Viento: O 22 km/h
Temperatura: 16°C
Rocío: 4°C
Humedad: 45%
Barómetro: 1010 hPa
Resumen: Despejado
Visibility: greater than 10 km
2018/02/21 01:30 LEMG 210130Z 27012KT CAVOK 16/04 Q1010 NOSIG
 
LEZL - Sevilla (civ/Mil, Spain
Distance from station: S 318km
Actualización: 21/02/2018 02:30
Despejado
Despejado
 Viento del NE
Viento: NE 9 km/h
Temperatura: 10°C
Sensación frio: 9°C
Rocío: 4°C
Humedad: 67%
Barómetro: 1012 hPa
Clouds: Despejado
Visibility: 10 km
2018/02/21 01:30 LEZL 210130Z AUTO 05005KT 9999 NCD 10/04 Q1012
LEVT - Vitoria, Spain
Distance from station: NO 226km
Actualización: 21/02/2018 02:30
Lluvia débil, Muy nuboso
Lluvia débil, Muy nuboso
 Viento del NNO
Viento: NNO 24 km/h
Temperatura: 6°C
Sensación frio: 2°C
Rocío: 4°C
Humedad: 87%
Barómetro: 1016 hPa
Resumen: Lluvia débil
Clouds: Muy nuboso
Visibility: 10 km
Cloud details: Parcialmente nuboso 610 m
Muy nuboso 1036 m
2018/02/21 01:30 LEVT 210130Z 34013KT 9999 -RA SCT020 BKN034 06/04 Q1016
 
LEBB - Bilbao/Sondica, Spain
Distance from station: NNO 235km
Actualización: 21/02/2018 02:30
Parcialmente nuboso
Parcialmente nuboso
 Viento del N
Viento: N 24 km/h, Racha: 43 km/h
Temperatura: 10°C
Sensación frio: 7°C
Rocío: 7°C
Humedad: 82%
Barómetro: 1018 hPa
Clouds: Parcialmente nuboso
Visibility: 10 km
Cloud details: Few Clouds 1219 m
Parcialmente nuboso 1829 m
2018/02/21 01:30 LEBB 210130Z AUTO 35013G23KT 9999 FEW040 SCT060 10/07 Q1018
LESO - San Sebastian/Fu, Spain
Distance from station: N 231km
Actualización: 21/02/2018 02:30
Lluvia, Cubierto
Lluvia, Cubierto
 Viento del NNO
Viento: NNO 26 km/h, Racha: 50 km/h
Temperatura: 9°C
Sensación frio: 6°C
Rocío: 7°C
Humedad: 87%
Barómetro: 1017 hPa
Resumen: Lluvia
Clouds: Cubierto
Visibility: 6 km
Cloud details: Muy nuboso 579 m
Muy nuboso 884 m
Cubierto 1250 m
2018/02/21 01:30 LESO 210130Z AUTO 34014G27KT 290V030 6000 RA BKN019/// BKN029/// OVC041/// 09/07 Q1017
 
LEVD - Valladolid(Mil/C, Spain
Distance from station: ONO 239km
Actualización: 20/02/2018 21:30
NOT Current
Few Clouds
Few Clouds
 Viento del NE
Viento: NE 6 km/h
Temperatura: 3°C
Rocío: 0°C
Humedad: 81%
Barómetro: 1019 hPa
Clouds: Few Clouds
Visibility: 10 km
Cloud details: Few Clouds 1280 m
2018/02/20 20:30 LEVD 202030Z 04003KT 010V080 9999 FEW042 03/M00 Q1019
LESA - Salamanca (civ/M, Spain
Distance from station: ONO 349km
Actualización: 20/02/2018 19:30
NOT Current
Few Clouds
Few Clouds
 Viento del E
Viento: E 13 km/h
Temperatura: 8°C
Sensación frio: 6°C
Rocío: 0°C
Humedad: 57%
Barómetro: 1019 hPa
Clouds: Few Clouds
Visibility: 10 km
Cloud details: Few Clouds 1463 m
2018/02/20 18:30 LESA 201830Z 10007KT 9999 FEW048 08/00 Q1019
 
LEXJ - Santander/Paraya, Spain
Distance from station: NNO 247km
Actualización: 21/02/2018 02:30
Mist, Muy nuboso
Mist, Muy nuboso
 Viento del N
Viento: N 20 km/h
Temperatura: 11°C
Rocío: 7°C
Humedad: 77%
Barómetro: 1020 hPa
Resumen: Mist
Clouds: Muy nuboso
Visibility: 5 km
Cloud details: Few Clouds 701 m
Parcialmente nuboso 1036 m
Muy nuboso 1280 m
2018/02/21 01:30 LEXJ 210130Z AUTO 36011KT 300V050 4800 BR FEW023/// SCT034/// BKN042/// 11/07 Q1020
LEAS - Asturias/Aviles, Spain
Distance from station: NO 214km
Actualización: 21/02/2018 02:30
Cubierto
Cubierto
 Viento del NE
Viento: NE 6 km/h
Temperatura: 9°C
Rocío: 4°C
Humedad: 71%
Barómetro: 1022 hPa
Clouds: Cubierto
Visibility: 7 km
Cloud details: Cubierto 1036 m
2018/02/21 01:30 LEAS 210130Z AUTO 04003KT 330V120 7000 OVC034/// 09/04 Q1022
 
LECO - La Coruna/Alvedr, Spain
Distance from station: ONO 222km
Actualización: 21/02/2018 02:30
Muy nuboso
Muy nuboso
 Viento del NE
Viento: NE 11 km/h
Temperatura: 10°C
Sensación frio: 8°C
Rocío: 8°C
Humedad: 88%
Barómetro: 1022 hPa
Clouds: Muy nuboso
Visibility: 10 km
Cloud details: Few Clouds 549 m
Muy nuboso 945 m
Muy nuboso 1158 m
2018/02/21 01:30 LECO 210130Z AUTO 05006KT 9999 FEW018/// BKN031/// BKN038/// 10/08 Q1022
LEVX - Vigo/Peinador, Spain
Distance from station: O 214km
Actualización: 21/02/2018 02:30
Despejado
Despejado
 Viento del varies
Viento: varies 2 km/h
Temperatura: 6°C
Rocío: 3°C
Humedad: 81%
Barómetro: 1019 hPa
Resumen: Despejado
Visibility: greater than 10 km
2018/02/21 01:30 LEVX 210130Z VRB01KT CAVOK 06/03 Q1019 NOSIG